Latest Weather Observations for Flinders Island Airport

IDT60801

Issued at 6:05 pm EDT Sunday 26 October 2014 (issued every 30 minutes, with the page automatically refreshed every 10 minutes)

About weather observations | Map of weather stations | Latest weather observations for TAS | Other Formats
Station Details ID: 099005 Name: FLINDERS ISLAND AIRPORT Lat: -40.09 Lon: 148.00 Height: 9.0 m
Data from the previous 72 hours. | See also: Recent months at Flinders Island Airport
Date/Time
EDT
Temp
°C
App
Temp
°C
Dew
Point
Rel
Hum
%
Delta-T
°C
Wind Press
QNH
hPa
Press
MSL
hPa
Rain
since 9 am
mm
Dir
 
Spd
km/h
Gust
km/h
Spd
kts
Gust
kts
26/06:00pm 15.4 13.5 10.6 73 2.5 SW 11 15 6 8 1011.5 1011.5 0.0
26/05:30pm 15.6 13.8 11.0 74 2.5 SW 11 15 6 8 1011.7 1011.7 0.0
26/05:00pm 15.8 13.7 11.0 73 2.6 WSW 13 17 7 9 1011.9 1011.9 0.0
26/04:30pm 15.4 13.2 10.8 74 2.4 WSW 13 17 7 9 1011.8 1011.8 0.0
26/04:00pm 15.5 13.0 10.9 74 2.4 WSW 15 19 8 10 1012.1 1012.1 0.0
26/03:30pm 16.0 13.2 11.2 73 2.6 SW 17 20 9 11 1012.0 1012.0 0.0
26/03:00pm 15.8 12.5 11.0 73 2.6 WSW 19 22 10 12 1012.1 1012.1 0.0
26/02:30pm 16.6 13.7 11.1 70 3.0 WSW 17 22 9 12 1012.4 1012.4 0.0
26/02:00pm 16.5 13.6 11.0 70 2.9 SW 17 20 9 11 1012.3 1012.3 0.0
26/01:30pm 16.7 13.9 11.2 70 3.0 SW 17 20 9 11 1012.3 1012.3 0.0
26/01:00pm 16.4 14.1 11.6 73 2.6 SW 15 19 8 10 1012.4 1012.4 0.0
26/12:30pm 16.6 14.1 12.2 75 2.4 WSW 17 22 9 12 1013.0 1013.0 0.0
26/12:20pm 16.4 13.8 12.0 75 2.4 WSW 17 19 9 10 1013.0 1013.0 0.0
26/12:05pm 16.3 13.7 11.9 75 2.4 WSW 17 19 9 10 1013.1 1013.1 0.0
26/12:00pm 16.1 13.4 11.7 75 2.4 WSW 17 19 9 10 1013.1 1013.1 0.0
26/11:30am 16.6 14.6 12.6 77 2.2 WSW 15 19 8 10 1013.0 1013.0 0.0
26/11:00am 16.2 14.3 12.9 81 1.8 WSW 15 19 8 10 1013.2 1013.2 0.0
26/10:40am 15.7 13.8 13.0 84 1.5 SW 15 17 8 9 1013.4 1013.4 0.0
26/10:30am 15.2 13.3 12.9 86 1.3 SW 15 19 8 10 1013.4 1013.4 0.0
26/10:00am 14.7 12.8 12.9 89 1.0 SW 15 17 8 9 1013.2 1013.2 0.0
26/09:30am 14.8 13.0 13.3 91 0.8 WSW 15 19 8 10 1013.3 1013.3 0.0
26/09:00am 14.0 11.6 12.7 92 0.7 WSW 17 20 9 11 1013.1 1013.1 0.8
26/08:30am 13.8 10.8 12.7 93 0.6 WSW 20 24 11 13 1013.1 1013.1 0.8
26/08:00am 14.1 11.4 12.8 92 0.7 WSW 19 20 10 11 1012.9 1012.9 0.8
26/07:31am 14.2 13.0 12.8 91 0.8 WNW 11 13 6 7 1012.9 1012.9 0.6
26/07:30am 14.2 13.0 12.8 91 0.8 WNW 11 13 6 7 1012.9 1012.9 0.6
26/07:09am 14.2 13.9 12.6 90 0.9 NNW 6 9 3 5 1012.8 1012.8 0.0
26/07:00am 14.4 15.3 12.8 90 0.9 CALM 0 0 0 0 1012.7 1012.7 0.0
26/06:30am 14.0 14.7 12.2 89 1.0 CALM 0 0 0 0 1012.4 1012.4 0.0
26/06:00am 13.7 14.3 11.9 89 1.0 CALM 0 0 0 0 1012.5 1012.5 0.0
26/05:30am 14.0 13.4 12.2 89 1.0 E 7 9 4 5 1012.3 1012.3 0.0
26/05:07am 13.7 12.9 11.7 88 1.1 ESE 7 9 4 5 1012.2 1012.2 0.0
26/05:00am 13.8 14.0 11.8 88 1.1 ESE 2 7 1 4 1012.2 1012.2 0.0
26/04:30am 14.0 13.3 12.0 88 1.1 E 7 9 4 5 1012.3 1012.3 0.0
26/04:00am 14.2 13.2 12.2 88 1.1 E 9 13 5 7 1012.5 1012.5 0.0
26/03:30am 14.0 12.9 11.9 87 1.1 SE 9 11 5 6 1013.2 1013.2 0.0
26/03:00am 13.9 12.3 11.6 86 1.2 E 11 15 6 8 1013.2 1013.2 0.0
26/02:30am 14.5 13.0 12.0 85 1.4 ENE 11 13 6 7 1013.8 1013.8 0.0
26/02:00am 14.7 12.9 12.2 85 1.4 ENE 13 17 7 9 1014.1 1014.1 0.0
26/01:30am 14.7 12.9 12.2 85 1.4 NE 13 17 7 9 1014.7 1014.7 0.0
26/01:00am 14.9 13.2 12.4 85 1.4 ENE 13 19 7 10 1015.3 1015.3 0.0
26/12:30am 14.8 12.3 12.3 85 1.4 ENE 17 24 9 13 1015.4 1015.4 0.0
26/12:00am 15.1 12.1 12.4 84 1.5 ENE 20 30 11 16 1015.6 1015.6 0.0
 
Date/Time
EDT
Temp
°C
App
Temp
°C
Dew
Point
Rel
Hum
%
Delta-T
°C
Wind Press
QNH
hPa
Press
MSL
hPa
Rain
since 9 am
mm
Dir
 
Spd
km/h
Gust
km/h
Spd
kts
Gust
kts
25/11:30pm 15.0 12.2 12.5 85 1.4 ENE 19 24 10 13 1015.4 1015.4 0.0
25/11:10pm 15.0 12.6 12.7 86 1.3 ENE 17 24 9 13 1015.6 1015.6 0.0
25/11:00pm 14.9 11.5 12.6 86 1.3 ENE 22 30 12 16 1015.6 1015.6 0.0
25/10:30pm 15.2 11.5 12.7 85 1.4 ENE 24 33 13 18 1016.0 1016.0 0.0
25/10:00pm 15.2 12.1 12.3 83 1.6 ENE 20 30 11 16 1016.7 1016.7 0.0
25/09:30pm 15.6 13.1 12.4 81 1.8 ENE 17 24 9 13 1017.0 1017.0 0.0
25/09:00pm 15.6 12.6 12.4 81 1.8 ENE 20 30 11 16 1016.9 1016.9 0.0
25/08:30pm 15.5 13.4 12.3 81 1.7 E 15 19 8 10 1016.4 1016.4 0.0
25/08:00pm 15.6 12.8 12.5 82 1.7 ENE 19 26 10 14 1015.8 1015.8 0.0
25/07:30pm 15.6 12.7 12.4 81 1.8 ENE 19 30 10 16 1015.5 1015.5 0.0
25/07:00pm 15.8 13.0 12.7 82 1.7 ENE 19 30 10 16 1015.4 1015.4 0.0
25/06:30pm 15.9 14.8 13.0 83 1.6 ENE 11 22 6 12 1015.5 1015.5 0.0
25/06:00pm 14.8 14.1 11.9 83 1.6 S 7 11 4 6 1015.5 1015.5 0.0
25/05:30pm 15.1 14.4 11.9 81 1.7 SSW 7 11 4 6 1015.3 1015.3 0.0
25/05:00pm 15.3 14.8 11.9 80 1.8 SSE 6 9 3 5 1015.1 1015.1 0.0
25/04:30pm 15.1 13.9 11.5 79 1.9 SW 9 11 5 6 1015.2 1015.2 0.0
25/04:00pm 14.9 13.6 11.3 79 1.9 SSW 9 13 5 7 1015.4 1015.4 0.0
25/03:30pm 15.3 13.4 11.7 79 1.9 WSW 13 19 7 10 1015.4 1015.4 0.0
25/03:00pm 15.3 13.4 11.7 79 1.9 SW 13 15 7 8 1015.2 1015.2 0.0
25/02:49pm 15.6 13.3 11.8 78 2.1 SW 15 19 8 10 1015.2 1015.2 0.0
25/02:30pm 15.8 13.4 11.4 75 2.4 SW 15 19 8 10 1015.2 1015.2 0.0
25/02:00pm 16.5 14.0 12.3 76 2.3 WSW 17 19 9 10 1015.5 1015.5 0.0
25/01:30pm 16.4 14.2 12.0 75 2.4 SW 15 19 8 10 1015.6 1015.6 0.0
25/01:00pm 16.1 13.8 11.7 75 2.4 WSW 15 19 8 10 1015.7 1015.7 0.0
25/12:30pm 16.4 13.8 12.0 75 2.4 WSW 17 19 9 10 1015.8 1015.8 0.0
25/12:00pm 16.4 13.9 12.2 76 2.3 W 17 20 9 11 1016.2 1016.2 0.0
25/11:45am 16.5 14.1 12.5 77 2.2 W 17 22 9 12 1016.3 1016.3 0.0
25/11:31am 16.1 13.1 12.1 77 2.2 W 19 24 10 13 1016.5 1016.5 0.0
25/11:30am 16.2 13.3 12.4 78 2.1 W 19 24 10 13 1016.5 1016.5 0.0
25/11:05am 16.5 14.1 12.7 78 2.1 W 17 26 9 14 1016.4 1016.4 0.0
25/11:00am 16.4 13.6 12.6 78 2.1 W 19 24 10 13 1016.5 1016.5 0.0
25/10:30am 16.0 13.0 12.6 80 1.9 WNW 20 26 11 14 1016.4 1016.4 0.0
25/10:00am 15.8 12.4 12.4 80 1.9 W 22 30 12 16 1016.3 1016.3 0.0
25/09:30am 15.4 12.4 12.5 83 1.6 W 20 26 11 14 1016.0 1016.0 0.0
25/09:00am 15.3 11.6 12.8 85 1.4 W 24 30 13 16 1015.8 1015.8 0.0
25/08:30am 15.0 9.8 12.7 86 1.3 W 32 35 17 19 1015.4 1015.4 0.0
25/08:00am 14.7 10.2 12.7 88 1.1 W 28 33 15 18 1015.0 1015.0 0.0
25/07:30am 14.3 10.6 12.7 90 0.9 W 24 32 13 17 1014.8 1014.8 0.0
25/07:00am 14.0 9.4 12.4 90 0.9 W 28 35 15 19 1014.2 1014.2 0.0
25/06:30am 13.9 10.1 12.3 90 0.9 W 24 32 13 17 1013.8 1013.8 0.0
25/06:02am 13.9 9.3 12.3 90 0.9 W 28 33 15 18 1013.3 1013.3 0.0
25/06:00am 14.0 9.4 12.4 90 0.9 W 28 33 15 18 1013.3 1013.3 0.0
25/05:30am 13.7 9.0 12.1 90 0.9 WNW 28 35 15 19 1012.8 1012.8 0.0
25/05:00am 13.9 9.0 12.5 91 0.8 WNW 30 35 16 19 1012.6 1012.6 0.0
25/04:31am 13.9 9.4 12.5 91 0.8 W 28 35 15 19 1012.4 1012.4 0.0
25/04:30am 13.8 9.2 12.4 91 0.8 W 28 35 15 19 1012.4 1012.4 0.0
25/04:00am 14.1 8.9 12.7 91 0.8 W 32 39 17 21 1012.3 1012.3 0.0
25/03:30am 14.0 8.5 12.6 91 0.8 W 33 41 18 22 1012.1 1012.1 0.0
25/03:02am 14.0 8.7 12.6 91 0.8 W 32 41 17 22 1011.9 1011.9 0.0
25/03:00am 14.0 8.7 12.4 90 0.9 W 32 41 17 22 1011.9 1011.9 0.0
25/02:30am 14.3 9.1 12.7 90 0.9 W 32 41 17 22 1012.0 1012.0 0.0
25/02:00am 14.4 7.6 13.0 91 0.8 W 41 52 22 28 1012.0 1012.0 0.0
25/01:30am 14.6 7.9 13.3 92 0.7 W 41 48 22 26 1011.9 1011.9 0.0
25/01:28am 14.6 8.6 13.3 92 0.7 WSW 37 43 20 23 1011.9 1011.9 0.0
25/01:00am 14.6 11.5 13.5 93 0.6 W 22 30 12 16 1011.8 1011.8 0.0
25/12:30am 14.5 9.9 13.5 94 0.6 W 30 35 16 19 1011.9 1011.9 0.0
25/12:00am 14.4 10.9 13.4 94 0.6 W 24 32 13 17 1011.6 1011.6 0.0
 
Date/Time
EDT
Temp
°C
App
Temp
°C
Dew
Point
Rel
Hum
%
Delta-T
°C
Wind Press
QNH
hPa
Press
MSL
hPa
Rain
since 9 am
mm
Dir
 
Spd
km/h
Gust
km/h
Spd
kts
Gust
kts
24/11:30pm 14.5 12.4 13.5 94 0.6 W 17 26 9 14 1011.5 1011.5 0.0
24/11:00pm 14.1 11.5 13.1 94 0.6 W 19 24 10 13 1011.6 1011.6 0.0
24/10:49pm 14.1 10.9 13.1 94 0.6 W 22 28 12 15 1011.5 1011.5 0.0
24/10:30pm 14.1 10.5 13.0 93 0.6 W 24 32 13 17 1011.5 1011.5 0.0
24/10:00pm 14.3 9.1 12.9 91 0.8 W 32 39 17 21 1011.7 1011.7 0.0
24/09:50pm 14.9 9.3 13.3 90 0.9 W 35 41 19 22 1011.8 1011.8 0.0
24/09:30pm 15.9 13.0 13.9 88 1.1 WNW 22 30 12 16 1011.5 1011.5 0.0
24/09:24pm 16.1 12.4 13.9 87 1.2 WNW 26 33 14 18 1011.4 1011.4 0.0
24/09:00pm 16.4 12.3 13.9 85 1.4 NW 28 35 15 19 1011.0 1011.0 0.0
24/08:30pm 17.3 13.9 13.8 80 2.0 WNW 24 32 13 17 1010.4 1010.4 0.0
24/08:00pm 17.9 14.5 13.6 76 2.4 NW 24 32 13 17 1010.0 1010.0 0.0
24/07:30pm 19.1 16.9 14.4 74 2.7 NW 19 24 10 13 1009.9 1009.9 0.0
24/07:00pm 20.1 19.1 15.5 75 2.7 NW 15 20 8 11 1009.6 1009.6 0.0
24/06:30pm 19.6 18.6 15.7 78 2.3 NNE 15 24 8 13 1008.7 1008.7 0.0
24/06:00pm 19.6 17.8 15.9 79 2.2 NNE 20 30 11 16 1008.9 1008.9 0.0
24/05:30pm 19.7 16.5 16.2 80 2.1 NE 28 37 15 20 1009.4 1009.4 0.0
24/05:00pm 19.4 15.1 15.9 80 2.1 NNE 33 41 18 22 1009.4 1009.4 0.0
24/04:45pm 19.7 14.7 16.0 79 2.2 NNE 37 46 20 25 1009.3 1009.3 0.0
24/04:30pm 19.9 15.6 16.0 78 2.3 NE 33 44 18 24 1009.4 1009.4 0.0
24/04:00pm 19.9 14.9 16.2 79 2.2 NE 37 52 20 28 1009.6 1009.6 0.0
24/03:30pm 20.2 14.4 16.0 77 2.5 NE 41 54 22 29 1010.0 1010.0 0.0
24/03:00pm 19.4 13.6 15.9 80 2.1 NE 41 52 22 28 1010.6 1010.6 0.0
24/02:30pm 19.6 14.6 16.1 80 2.1 NE 37 56 20 30 1011.0 1011.0 0.0
24/02:16pm 19.0 14.3 15.9 82 1.8 NE 35 56 19 30 1011.3 1011.3 0.0
24/02:00pm 19.0 14.3 15.9 82 1.8 ENE 35 52 19 28 1011.6 1011.6 0.0
24/01:51pm 18.8 14.5 15.9 83 1.7 ENE 33 52 18 28 1011.8 1011.8 0.0
24/01:30pm 18.4 13.2 15.6 84 1.6 ENE 37 54 20 29 1011.9 1011.9 0.0
24/01:00pm 17.9 12.6 15.3 85 1.5 ENE 37 52 20 28 1012.2 1012.2 0.0
24/12:30pm 18.0 12.7 15.4 85 1.5 ENE 37 54 20 29 1012.5 1012.5 0.0
24/12:00pm 17.8 12.9 15.2 85 1.5 ENE 35 54 19 29 1012.8 1012.8 0.0
24/11:36am 17.8 12.5 15.4 86 1.4 ENE 37 56 20 30 1013.5 1013.5 0.0
24/11:30am 17.9 12.8 15.7 87 1.3 ENE 37 52 20 28 1013.4 1013.4 0.0
24/11:07am 17.3 11.7 15.5 89 1.1 ENE 39 57 21 31 1013.7 1013.7 0.0
24/11:00am 17.3 11.3 15.5 89 1.1 ENE 41 57 22 31 1013.9 1013.9 0.0
24/10:32am 17.3 12.2 15.8 91 0.9 ENE 37 56 20 30 1014.3 1014.3 0.0
24/10:30am 17.4 12.3 15.9 91 0.9 ENE 37 54 20 29 1014.3 1014.3 0.0
24/10:00am 17.0 12.9 16.0 94 0.6 ENE 32 50 17 27 1014.9 1014.9 0.0
24/09:30am 16.1 12.1 15.3 95 0.5 ENE 30 50 16 27 1015.5 1015.5 0.0
24/09:29am 16.2 12.7 15.4 95 0.5 ENE 28 48 15 26 1015.6 1015.6 0.0
24/09:25am 16.2 12.7 15.4 95 0.5 ENE 28 41 15 22 1015.7 1015.7 0.0
24/09:18am 16.1 11.6 15.3 95 0.5 ENE 33 52 18 28 1015.8 1015.8 0.0
24/09:10am 16.1 11.2 15.3 95 0.5 E 35 50 19 27 1015.8 1015.8 0.0
24/09:00am 16.1 11.6 15.3 95 0.5 ENE 33 52 18 28 1016.0 1016.0 0.2
24/08:30am 16.0 11.4 15.2 95 0.5 ENE 33 52 18 28 1016.7 1016.7 0.2
24/08:07am 15.7 12.0 15.1 96 0.3 E 28 54 15 29 1016.7 1016.7 0.2
24/08:00am 15.7 12.0 15.1 96 0.3 E 28 41 15 22 1016.8 1016.8 0.2
24/07:30am 15.3 10.2 14.7 96 0.3 E 35 54 19 29 1016.9 1016.9 0.2
24/07:21am 15.2 10.4 14.6 96 0.3 ENE 33 54 18 29 1017.1 1017.1 0.2
24/07:00am 15.0 9.8 14.4 96 0.3 E 35 52 19 28 1017.2 1017.2 0.0
24/06:52am 15.0 10.1 14.2 95 0.5 E 33 52 18 28 1017.3 1017.3 0.0
24/06:30am 14.9 9.9 14.1 95 0.5 E 33 44 18 24 1017.3 1017.3 0.0
24/06:00am 14.6 9.2 13.8 95 0.4 E 35 56 19 30 1017.4 1017.4 0.0
24/05:33am 14.5 9.0 13.5 94 0.6 E 35 57 19 31 1017.5 1017.5 0.0
24/05:30am 14.4 9.2 13.4 94 0.6 E 33 46 18 25 1017.5 1017.5 0.0
24/05:03am 14.4 9.7 13.1 92 0.7 E 30 52 16 28 1017.8 1017.8 0.0
24/05:00am 14.4 10.1 13.1 92 0.7 E 28 43 15 23 1018.1 1018.0 0.0
24/04:54am 14.4 9.7 13.1 92 0.7 E 30 48 16 26 1018.1 1018.0 0.0
24/04:30am 14.2 9.0 12.8 91 0.8 E 32 44 17 24 1018.1 1018.0 0.0
24/04:29am 14.2 9.0 12.8 91 0.8 E 32 48 17 26 1018.2 1018.1 0.0
24/04:00am 14.1 8.7 12.3 89 1.0 E 32 54 17 29 1018.6 1018.5 0.0
24/03:42am 14.0 8.5 12.0 88 1.1 E 32 52 17 28 1018.8 1018.8 0.0
24/03:41am 14.0 8.9 12.0 88 1.1 E 30 44 16 24 1018.9 1018.9 0.0
24/03:36am 13.9 8.8 11.9 88 1.1 E 30 44 16 24 1019.1 1019.1 0.0
24/03:30am 13.8 8.3 11.8 88 1.1 E 32 43 17 23 1019.2 1019.2 0.0
24/03:15am 13.7 8.4 11.4 86 1.2 E 30 44 16 24 1019.5 1019.5 0.0
24/03:06am 13.7 8.4 11.4 86 1.2 E 30 54 16 29 1019.6 1019.6 0.0
24/03:00am 13.7 8.4 11.2 85 1.3 E 30 54 16 29 1019.7 1019.7 0.0
24/02:51am 13.8 8.1 11.1 84 1.4 E 32 43 17 23 1019.9 1019.9 0.0
24/02:30am 14.1 8.6 10.5 79 1.9 E 30 48 16 26 1019.9 1019.9 0.0
24/02:20am 14.2 9.0 10.4 78 2.0 E 28 48 15 26 1020.0 1020.0 0.0
24/02:00am 14.2 9.3 10.0 76 2.2 E 26 37 14 20 1020.3 1020.3 0.0
24/01:30am 14.2 8.9 9.8 75 2.3 E 28 39 15 21 1020.8 1020.8 0.0
24/01:06am 14.1 8.7 9.5 74 2.4 E 28 46 15 25 1021.1 1021.1 0.0
24/01:00am 14.1 8.7 9.5 74 2.3 E 28 39 15 21 1021.1 1021.1 0.0
24/12:30am 14.1 9.0 9.3 73 2.5 E 26 41 14 22 1021.7 1021.7 0.0
24/12:17am 14.1 9.4 9.1 72 2.5 E 24 37 13 20 1021.9 1021.9 0.0
24/12:00am 14.1 10.1 8.9 71 2.6 E 20 32 11 17 1022.2 1022.2 0.0
 
Date/Time
EDT
Temp
°C
App
Temp
°C
Dew
Point
Rel
Hum
%
Delta-T
°C
Wind Press
QNH
hPa
Press
MSL
hPa
Rain
since 9 am
mm
Dir
 
Spd
km/h
Gust
km/h
Spd
kts
Gust
kts
23/11:30pm 14.0 9.6 9.0 72 2.5 E 22 39 12 21 1022.5 1022.5 0.0
23/11:00pm 13.7 8.9 8.7 72 2.5 E 24 39 13 21 1022.8 1022.8 0.0
23/10:30pm 13.7 9.2 8.5 71 2.6 E 22 39 12 21 1022.9 1022.9 0.0
23/10:00pm 13.5 8.6 8.4 71 2.5 E 24 41 13 22 1023.3 1023.3 0.0
23/09:30pm 13.3 6.9 8.6 73 2.4 E 32 44 17 24 1023.4 1023.4 0.0
23/09:00pm 13.3 8.4 8.6 73 2.3 E 24 35 13 19 1023.3 1023.3 0.0
23/08:30pm 13.2 8.6 8.3 72 2.4 E 22 37 12 20 1022.9 1022.9 0.0
23/08:00pm 13.2 9.0 8.1 71 2.5 E 20 35 11 19 1022.6 1022.6 0.0
23/07:30pm 13.5 9.3 8.1 70 2.7 E 20 33 11 18 1022.7 1022.7 0.0
23/07:00pm 13.6 9.0 8.2 70 2.7 E 22 35 12 19 1022.7 1022.7 0.0
23/06:30pm 13.8 10.2 8.2 69 2.8 E 17 32 9 17 1022.5 1022.5 0.0

Other Formats:

Comma delimited format used in spreadsheet applications
http://www.bom.gov.au/fwo/IDT60801/IDT60801.94980.axf

JavaScript Object Notation format (JSON) in row-major order
http://www.bom.gov.au/fwo/IDT60801/IDT60801.94980.json